sensor_id;sensor_type;location;lat;lon;timestamp;temperature;humidity
2497;DHT22;1259;48.306;14.374;2023-04-29T00:00:29;10.70;99.90
2497;DHT22;1259;48.306;14.374;2023-04-29T00:02:56;10.80;99.90
2497;DHT22;1259;48.306;14.374;2023-04-29T00:05:23;10.70;99.90
2497;DHT22;1259;48.306;14.374;2023-04-29T00:07:49;10.70;99.90
2497;DHT22;1259;48.306;14.374;2023-04-29T00:10:16;10.70;99.90
2497;DHT22;1259;48.306;14.374;2023-04-29T00:12:44;10.70;99.90
2497;DHT22;1259;48.306;14.374;2023-04-29T00:15:11;10.70;99.90
2497;DHT22;1259;48.306;14.374;2023-04-29T00:17:37;10.70;99.90
2497;DHT22;1259;48.306;14.374;2023-04-29T00:20:05;10.70;99.90
2497;DHT22;1259;48.306;14.374;2023-04-29T00:22:32;10.60;99.90
2497;DHT22;1259;48.306;14.374;2023-04-29T00:24:59;10.60;99.90
2497;DHT22;1259;48.306;14.374;2023-04-29T00:27:25;10.60;99.90
2497;DHT22;1259;48.306;14.374;2023-04-29T00:29:53;10.60;99.90
2497;DHT22;1259;48.306;14.374;2023-04-29T00:32:21;10.70;99.90
2497;DHT22;1259;48.306;14.374;2023-04-29T00:34:48;10.70;99.90
2497;DHT22;1259;48.306;14.374;2023-04-29T00:37:15;10.60;99.90
2497;DHT22;1259;48.306;14.374;2023-04-29T00:39:41;10.60;99.90
2497;DHT22;1259;48.306;14.374;2023-04-29T00:42:08;10.70;99.90
2497;DHT22;1259;48.306;14.374;2023-04-29T00:44:35;10.70;99.90
2497;DHT22;1259;48.306;14.374;2023-04-29T00:47:03;10.70;99.90
2497;DHT22;1259;48.306;14.374;2023-04-29T00:49:30;10.70;99.90
2497;DHT22;1259;48.306;14.374;2023-04-29T00:51:56;10.70;99.90
2497;DHT22;1259;48.306;14.374;2023-04-29T00:54:24;10.70;99.90
2497;DHT22;1259;48.306;14.374;2023-04-29T00:56:51;10.80;99.90
2497;DHT22;1259;48.306;14.374;2023-04-29T00:59:18;10.70;99.90
2497;DHT22;1259;48.306;14.374;2023-04-29T01:01:46;10.70;99.90
2497;DHT22;1259;48.306;14.374;2023-04-29T01:04:14;10.70;99.90
2497;DHT22;1259;48.306;14.374;2023-04-29T01:06:45;10.70;99.90
2497;DHT22;1259;48.306;14.374;2023-04-29T01:09:23;10.60;99.90
2497;DHT22;1259;48.306;14.374;2023-04-29T01:11:54;10.70;99.90
2497;DHT22;1259;48.306;14.374;2023-04-29T01:14:23;10.60;99.90
2497;DHT22;1259;48.306;14.374;2023-04-29T01:16:52;10.60;99.90
2497;DHT22;1259;48.306;14.374;2023-04-29T01:19:26;10.50;99.90
2497;DHT22;1259;48.306;14.374;2023-04-29T01:21:55;10.40;99.90
2497;DHT22;1259;48.306;14.374;2023-04-29T01:24:23;10.40;99.90
2497;DHT22;1259;48.306;14.374;2023-04-29T01:26:50;10.30;99.90
2497;DHT22;1259;48.306;14.374;2023-04-29T01:29:21;10.20;99.90
2497;DHT22;1259;48.306;14.374;2023-04-29T01:31:54;10.20;99.90
2497;DHT22;1259;48.306;14.374;2023-04-29T01:34:25;10.20;99.90
2497;DHT22;1259;48.306;14.374;2023-04-29T01:36:58;10.20;99.90
2497;DHT22;1259;48.306;14.374;2023-04-29T01:39:30;10.20;99.90
2497;DHT22;1259;48.306;14.374;2023-04-29T01:42:01;10.20;99.90
2497;DHT22;1259;48.306;14.374;2023-04-29T01:44:30;10.20;99.90
2497;DHT22;1259;48.306;14.374;2023-04-29T01:46:58;10.20;99.90
2497;DHT22;1259;48.306;14.374;2023-04-29T01:49:26;10.10;99.90
2497;DHT22;1259;48.306;14.374;2023-04-29T01:51:53;10.10;99.90
2497;DHT22;1259;48.306;14.374;2023-04-29T01:54:20;9.90;99.90
2497;DHT22;1259;48.306;14.374;2023-04-29T01:56:48;9.90;99.90
2497;DHT22;1259;48.306;14.374;2023-04-29T01:59:16;9.90;99.90
2497;DHT22;1259;48.306;14.374;2023-04-29T02:01:42;10.00;99.90
2497;DHT22;1259;48.306;14.374;2023-04-29T02:04:09;10.00;99.90
2497;DHT22;1259;48.306;14.374;2023-04-29T02:06:36;10.10;99.90
2497;DHT22;1259;48.306;14.374;2023-04-29T02:09:03;10.10;99.90
2497;DHT22;1259;48.306;14.374;2023-04-29T02:11:29;10.10;99.90
2497;DHT22;1259;48.306;14.374;2023-04-29T02:13:57;10.10;99.90
2497;DHT22;1259;48.306;14.374;2023-04-29T02:16:24;10.20;99.90
2497;DHT22;1259;48.306;14.374;2023-04-29T02:18:51;10.20;99.90
2497;DHT22;1259;48.306;14.374;2023-04-29T02:21:17;10.20;99.90
2497;DHT22;1259;48.306;14.374;2023-04-29T02:23:44;10.20;99.90
2497;DHT22;1259;48.306;14.374;2023-04-29T02:26:11;10.20;99.90
2497;DHT22;1259;48.306;14.374;2023-04-29T02:28:39;10.20;99.90
2497;DHT22;1259;48.306;14.374;2023-04-29T02:31:08;10.20;99.90
2497;DHT22;1259;48.306;14.374;2023-04-29T02:33:34;10.10;99.90
2497;DHT22;1259;48.306;14.374;2023-04-29T02:36:01;10.00;99.90
2497;DHT22;1259;48.306;14.374;2023-04-29T02:38:28;9.90;99.90
2497;DHT22;1259;48.306;14.374;2023-04-29T02:40:54;10.00;99.90
2497;DHT22;1259;48.306;14.374;2023-04-29T02:43:21;9.90;99.90
2497;DHT22;1259;48.306;14.374;2023-04-29T02:45:48;9.80;99.90
2497;DHT22;1259;48.306;14.374;2023-04-29T02:48:16;9.80;99.90
2497;DHT22;1259;48.306;14.374;2023-04-29T02:50:43;9.80;99.90
2497;DHT22;1259;48.306;14.374;2023-04-29T02:53:09;9.70;99.90
2497;DHT22;1259;48.306;14.374;2023-04-29T02:55:36;9.80;99.90
2497;DHT22;1259;48.306;14.374;2023-04-29T02:58:03;9.80;99.90
2497;DHT22;1259;48.306;14.374;2023-04-29T03:00:29;9.80;99.90
2497;DHT22;1259;48.306;14.374;2023-04-29T03:02:56;9.80;99.90
2497;DHT22;1259;48.306;14.374;2023-04-29T03:05:24;9.90;99.90
2497;DHT22;1259;48.306;14.374;2023-04-29T03:07:51;9.90;99.90
2497;DHT22;1259;48.306;14.374;2023-04-29T03:10:18;10.00;99.90
2497;DHT22;1259;48.306;14.374;2023-04-29T03:12:44;10.10;99.90
2497;DHT22;1259;48.306;14.374;2023-04-29T03:15:11;10.20;99.90
2497;DHT22;1259;48.306;14.374;2023-04-29T03:17:38;10.20;99.90
2497;DHT22;1259;48.306;14.374;2023-04-29T03:20:05;10.20;99.90
2497;DHT22;1259;48.306;14.374;2023-04-29T03:22:36;10.20;99.90
2497;DHT22;1259;48.306;14.374;2023-04-29T03:25:03;10.20;99.90
2497;DHT22;1259;48.306;14.374;2023-04-29T03:27:29;10.10;99.90
2497;DHT22;1259;48.306;14.374;2023-04-29T03:29:56;10.10;99.90
2497;DHT22;1259;48.306;14.374;2023-04-29T03:32:23;10.20;99.90
2497;DHT22;1259;48.306;14.374;2023-04-29T03:34:52;10.20;99.90
2497;DHT22;1259;48.306;14.374;2023-04-29T03:37:19;10.30;99.90
2497;DHT22;1259;48.306;14.374;2023-04-29T03:39:47;10.30;99.90
2497;DHT22;1259;48.306;14.374;2023-04-29T03:42:13;10.20;99.90
2497;DHT22;1259;48.306;14.374;2023-04-29T03:44:40;10.20;99.90
2497;DHT22;1259;48.306;14.374;2023-04-29T03:47:07;10.30;99.90
2497;DHT22;1259;48.306;14.374;2023-04-29T03:49:33;10.20;99.90
2497;DHT22;1259;48.306;14.374;2023-04-29T03:52:00;10.30;99.90
2497;DHT22;1259;48.306;14.374;2023-04-29T03:54:27;10.30;99.90
2497;DHT22;1259;48.306;14.374;2023-04-29T03:56:55;10.30;99.90
2497;DHT22;1259;48.306;14.374;2023-04-29T03:59:22;10.30;99.90
2497;DHT22;1259;48.306;14.374;2023-04-29T04:01:49;10.20;99.90
2497;DHT22;1259;48.306;14.374;2023-04-29T04:04:16;10.30;99.90
2497;DHT22;1259;48.306;14.374;2023-04-29T04:06:43;10.30;99.90
2497;DHT22;1259;48.306;14.374;2023-04-29T04:09:15;10.20;99.90
2497;DHT22;1259;48.306;14.374;2023-04-29T04:11:42;10.30;99.90
2497;DHT22;1259;48.306;14.374;2023-04-29T04:14:10;10.30;99.90
2497;DHT22;1259;48.306;14.374;2023-04-29T04:16:37;10.30;99.90
2497;DHT22;1259;48.306;14.374;2023-04-29T04:19:04;10.40;99.90
2497;DHT22;1259;48.306;14.374;2023-04-29T04:21:30;10.40;99.90
2497;DHT22;1259;48.306;14.374;2023-04-29T04:23:57;10.50;99.90
2497;DHT22;1259;48.306;14.374;2023-04-29T04:26:24;10.50;99.90
2497;DHT22;1259;48.306;14.374;2023-04-29T04:28:50;10.50;99.90
2497;DHT22;1259;48.306;14.374;2023-04-29T04:31:18;10.60;99.90
2497;DHT22;1259;48.306;14.374;2023-04-29T04:33:45;10.60;99.90
2497;DHT22;1259;48.306;14.374;2023-04-29T04:36:12;10.60;99.90
2497;DHT22;1259;48.306;14.374;2023-04-29T04:38:38;10.70;99.90
2497;DHT22;1259;48.306;14.374;2023-04-29T04:41:05;10.70;99.90
2497;DHT22;1259;48.306;14.374;2023-04-29T04:43:32;10.70;99.90
2497;DHT22;1259;48.306;14.374;2023-04-29T04:45:59;10.80;99.90
2497;DHT22;1259;48.306;14.374;2023-04-29T04:48:28;10.80;99.90
2497;DHT22;1259;48.306;14.374;2023-04-29T04:50:54;10.80;99.90
2497;DHT22;1259;48.306;14.374;2023-04-29T04:53:21;10.80;99.90
2497;DHT22;1259;48.306;14.374;2023-04-29T04:55:48;10.80;99.90
2497;DHT22;1259;48.306;14.374;2023-04-29T04:58:15;10.80;99.90
2497;DHT22;1259;48.306;14.374;2023-04-29T05:00:42;10.70;99.90
2497;DHT22;1259;48.306;14.374;2023-04-29T05:03:09;10.70;99.90
2497;DHT22;1259;48.306;14.374;2023-04-29T05:05:37;10.60;99.90
2497;DHT22;1259;48.306;14.374;2023-04-29T05:08:04;10.70;99.90
2497;DHT22;1259;48.306;14.374;2023-04-29T05:10:30;10.80;99.90
2497;DHT22;1259;48.306;14.374;2023-04-29T05:12:58;10.90;99.90
2497;DHT22;1259;48.306;14.374;2023-04-29T05:15:24;11.00;99.90
2497;DHT22;1259;48.306;14.374;2023-04-29T05:17:51;11.00;99.90
2497;DHT22;1259;48.306;14.374;2023-04-29T05:20:18;10.80;99.90
2497;DHT22;1259;48.306;14.374;2023-04-29T05:22:47;10.70;99.90
2497;DHT22;1259;48.306;14.374;2023-04-29T05:25:13;10.80;99.90
2497;DHT22;1259;48.306;14.374;2023-04-29T05:27:40;10.90;99.90
2497;DHT22;1259;48.306;14.374;2023-04-29T05:30:07;10.90;99.90
2497;DHT22;1259;48.306;14.374;2023-04-29T05:32:34;11.00;99.90
2497;DHT22;1259;48.306;14.374;2023-04-29T05:35:01;11.00;99.90
2497;DHT22;1259;48.306;14.374;2023-04-29T05:37:27;10.90;99.90
2497;DHT22;1259;48.306;14.374;2023-04-29T05:39:57;11.00;99.90
2497;DHT22;1259;48.306;14.374;2023-04-29T05:42:24;11.00;99.90
2497;DHT22;1259;48.306;14.374;2023-04-29T05:44:51;11.00;99.90
2497;DHT22;1259;48.306;14.374;2023-04-29T05:47:18;10.90;99.90
2497;DHT22;1259;48.306;14.374;2023-04-29T05:49:45;11.00;99.90
2497;DHT22;1259;48.306;14.374;2023-04-29T05:52:12;11.10;99.90
2497;DHT22;1259;48.306;14.374;2023-04-29T05:54:39;11.10;99.90
2497;DHT22;1259;48.306;14.374;2023-04-29T05:57:07;11.20;99.90
2497;DHT22;1259;48.306;14.374;2023-04-29T05:59:33;11.20;99.90
2497;DHT22;1259;48.306;14.374;2023-04-29T06:02:00;11.20;99.90
2497;DHT22;1259;48.306;14.374;2023-04-29T06:04:27;11.20;99.90
2497;DHT22;1259;48.306;14.374;2023-04-29T06:06:54;11.20;99.90
2497;DHT22;1259;48.306;14.374;2023-04-29T06:09:22;11.10;99.90
2497;DHT22;1259;48.306;14.374;2023-04-29T06:11:49;11.20;99.90
2497;DHT22;1259;48.306;14.374;2023-04-29T06:14:17;11.30;99.90
2497;DHT22;1259;48.306;14.374;2023-04-29T06:16:44;11.40;99.90
2497;DHT22;1259;48.306;14.374;2023-04-29T06:19:11;11.40;99.90
2497;DHT22;1259;48.306;14.374;2023-04-29T06:21:38;11.40;99.90
2497;DHT22;1259;48.306;14.374;2023-04-29T06:24:05;11.40;99.90
2497;DHT22;1259;48.306;14.374;2023-04-29T06:26:32;11.10;99.90
2497;DHT22;1259;48.306;14.374;2023-04-29T06:28:58;11.20;99.90
2497;DHT22;1259;48.306;14.374;2023-04-29T06:31:26;11.20;99.90
2497;DHT22;1259;48.306;14.374;2023-04-29T06:33:53;11.30;99.90
2497;DHT22;1259;48.306;14.374;2023-04-29T06:36:20;11.40;99.90
2497;DHT22;1259;48.306;14.374;2023-04-29T06:38:46;11.50;99.90
2497;DHT22;1259;48.306;14.374;2023-04-29T06:41:13;11.50;99.90
2497;DHT22;1259;48.306;14.374;2023-04-29T06:43:40;11.60;99.90
2497;DHT22;1259;48.306;14.374;2023-04-29T06:46:07;11.50;99.90
2497;DHT22;1259;48.306;14.374;2023-04-29T06:48:35;11.60;99.90
2497;DHT22;1259;48.306;14.374;2023-04-29T06:51:02;11.60;99.90
2497;DHT22;1259;48.306;14.374;2023-04-29T06:53:29;11.60;99.90
2497;DHT22;1259;48.306;14.374;2023-04-29T06:55:56;11.60;99.90
2497;DHT22;1259;48.306;14.374;2023-04-29T06:58:22;11.50;99.90
2497;DHT22;1259;48.306;14.374;2023-04-29T07:00:49;11.70;99.90
2497;DHT22;1259;48.306;14.374;2023-04-29T07:03:16;11.70;99.90
2497;DHT22;1259;48.306;14.374;2023-04-29T07:05:45;11.80;99.90
2497;DHT22;1259;48.306;14.374;2023-04-29T07:08:12;11.70;99.90
2497;DHT22;1259;48.306;14.374;2023-04-29T07:10:39;11.80;99.90
2497;DHT22;1259;48.306;14.374;2023-04-29T07:13:06;11.80;99.90
2497;DHT22;1259;48.306;14.374;2023-04-29T07:15:33;11.90;99.90
2497;DHT22;1259;48.306;14.374;2023-04-29T07:18:00;11.60;99.90
2497;DHT22;1259;48.306;14.374;2023-04-29T07:20:26;11.80;99.90
2497;DHT22;1259;48.306;14.374;2023-04-29T07:22:54;11.80;99.90
2497;DHT22;1259;48.306;14.374;2023-04-29T07:25:21;12.00;99.90
2497;DHT22;1259;48.306;14.374;2023-04-29T07:27:48;12.00;99.90
2497;DHT22;1259;48.306;14.374;2023-04-29T07:30:14;12.10;99.90
2497;DHT22;1259;48.306;14.374;2023-04-29T07:32:41;12.10;99.90
2497;DHT22;1259;48.306;14.374;2023-04-29T07:35:08;12.20;99.90
2497;DHT22;1259;48.306;14.374;2023-04-29T07:37:35;12.20;99.90
2497;DHT22;1259;48.306;14.374;2023-04-29T07:40:03;12.00;99.90
2497;DHT22;1259;48.306;14.374;2023-04-29T07:42:30;12.20;99.90
2497;DHT22;1259;48.306;14.374;2023-04-29T07:44:56;12.30;99.90
2497;DHT22;1259;48.306;14.374;2023-04-29T07:47:23;12.20;99.90
2497;DHT22;1259;48.306;14.374;2023-04-29T07:49:50;12.30;99.90
2497;DHT22;1259;48.306;14.374;2023-04-29T07:52:17;12.20;99.90
2497;DHT22;1259;48.306;14.374;2023-04-29T07:54:43;12.30;99.90
2497;DHT22;1259;48.306;14.374;2023-04-29T07:57:11;12.30;99.90
2497;DHT22;1259;48.306;14.374;2023-04-29T07:59:38;12.30;99.90
2497;DHT22;1259;48.306;14.374;2023-04-29T08:02:05;12.30;99.90
2497;DHT22;1259;48.306;14.374;2023-04-29T08:04:32;12.40;99.90
2497;DHT22;1259;48.306;14.374;2023-04-29T08:06:58;12.50;99.90
2497;DHT22;1259;48.306;14.374;2023-04-29T08:09:27;12.50;99.90
2497;DHT22;1259;48.306;14.374;2023-04-29T08:11:53;12.60;99.90
2497;DHT22;1259;48.306;14.374;2023-04-29T08:14:21;12.90;99.90
2497;DHT22;1259;48.306;14.374;2023-04-29T08:16:48;12.90;99.90
2497;DHT22;1259;48.306;14.374;2023-04-29T08:19:15;13.00;99.90
2497;DHT22;1259;48.306;14.374;2023-04-29T08:21:42;13.20;99.90
2497;DHT22;1259;48.306;14.374;2023-04-29T08:24:08;13.10;99.90
2497;DHT22;1259;48.306;14.374;2023-04-29T08:26:35;13.20;99.90
2497;DHT22;1259;48.306;14.374;2023-04-29T08:29:01;13.40;99.90
2497;DHT22;1259;48.306;14.374;2023-04-29T08:31:30;13.40;99.90
2497;DHT22;1259;48.306;14.374;2023-04-29T08:33:56;13.50;99.90
2497;DHT22;1259;48.306;14.374;2023-04-29T08:36:24;13.50;99.90
2497;DHT22;1259;48.306;14.374;2023-04-29T08:38:52;13.60;99.90
2497;DHT22;1259;48.306;14.374;2023-04-29T08:41:19;13.80;99.90
2497;DHT22;1259;48.306;14.374;2023-04-29T08:43:46;13.60;99.90
2497;DHT22;1259;48.306;14.374;2023-04-29T08:46:13;13.60;99.90
2497;DHT22;1259;48.306;14.374;2023-04-29T08:48:41;13.70;99.90
2497;DHT22;1259;48.306;14.374;2023-04-29T08:51:10;14.00;99.90
2497;DHT22;1259;48.306;14.374;2023-04-29T08:53:37;14.00;99.90
2497;DHT22;1259;48.306;14.374;2023-04-29T08:56:08;13.90;99.90
2497;DHT22;1259;48.306;14.374;2023-04-29T08:58:35;14.20;99.90
2497;DHT22;1259;48.306;14.374;2023-04-29T09:01:05;14.40;99.90
2497;DHT22;1259;48.306;14.374;2023-04-29T09:03:33;14.50;99.90
2497;DHT22;1259;48.306;14.374;2023-04-29T09:06:03;14.30;99.90
2497;DHT22;1259;48.306;14.374;2023-04-29T09:08:31;14.30;99.90
2497;DHT22;1259;48.306;14.374;2023-04-29T09:10:58;14.40;99.90
2497;DHT22;1259;48.306;14.374;2023-04-29T09:13:25;14.40;99.90
2497;DHT22;1259;48.306;14.374;2023-04-29T09:15:52;14.40;99.90
2497;DHT22;1259;48.306;14.374;2023-04-29T09:21:12;14.50;99.90
2497;DHT22;1259;48.306;14.374;2023-04-29T09:23:39;14.70;99.90
2497;DHT22;1259;48.306;14.374;2023-04-29T09:26:06;14.90;99.90
2497;DHT22;1259;48.306;14.374;2023-04-29T09:28:32;14.90;99.90
2497;DHT22;1259;48.306;14.374;2023-04-29T09:31:00;14.90;99.90
2497;DHT22;1259;48.306;14.374;2023-04-29T09:33:27;15.20;99.90
2497;DHT22;1259;48.306;14.374;2023-04-29T09:35:55;15.50;99.90
2497;DHT22;1259;48.306;14.374;2023-04-29T09:38:23;15.50;99.90
2497;DHT22;1259;48.306;14.374;2023-04-29T09:40:50;15.50;99.90
2497;DHT22;1259;48.306;14.374;2023-04-29T09:43:18;15.70;99.90
2497;DHT22;1259;48.306;14.374;2023-04-29T09:45:46;15.80;99.90
2497;DHT22;1259;48.306;14.374;2023-04-29T09:48:13;15.80;99.90
2497;DHT22;1259;48.306;14.374;2023-04-29T09:50:42;15.90;99.90
2497;DHT22;1259;48.306;14.374;2023-04-29T09:53:09;16.00;99.90
2497;DHT22;1259;48.306;14.374;2023-04-29T09:55:52;16.00;99.90
2497;DHT22;1259;48.306;14.374;2023-04-29T09:58:26;15.90;99.90
2497;DHT22;1259;48.306;14.374;2023-04-29T10:00:53;16.00;99.90
2497;DHT22;1259;48.306;14.374;2023-04-29T10:03:20;16.10;99.90
2497;DHT22;1259;48.306;14.374;2023-04-29T10:05:47;16.20;99.90
2497;DHT22;1259;48.306;14.374;2023-04-29T10:08:14;16.30;99.90
2497;DHT22;1259;48.306;14.374;2023-04-29T10:10:42;16.60;99.90
2497;DHT22;1259;48.306;14.374;2023-04-29T10:13:10;16.60;99.90
2497;DHT22;1259;48.306;14.374;2023-04-29T10:15:38;16.60;99.90
2497;DHT22;1259;48.306;14.374;2023-04-29T10:18:10;16.50;99.90
2497;DHT22;1259;48.306;14.374;2023-04-29T10:20:39;16.50;99.90
2497;DHT22;1259;48.306;14.374;2023-04-29T10:23:06;16.70;99.90
2497;DHT22;1259;48.306;14.374;2023-04-29T10:25:33;16.80;99.90
2497;DHT22;1259;48.306;14.374;2023-04-29T10:28:03;16.60;99.90
2497;DHT22;1259;48.306;14.374;2023-04-29T10:30:29;16.90;99.90
2497;DHT22;1259;48.306;14.374;2023-04-29T10:32:57;17.00;99.90
2497;DHT22;1259;48.306;14.374;2023-04-29T10:35:26;17.00;99.90
2497;DHT22;1259;48.306;14.374;2023-04-29T10:37:53;17.00;99.90
2497;DHT22;1259;48.306;14.374;2023-04-29T10:40:21;17.30;99.90
2497;DHT22;1259;48.306;14.374;2023-04-29T10:42:50;17.40;99.90
2497;DHT22;1259;48.306;14.374;2023-04-29T10:45:22;17.40;99.90
2497;DHT22;1259;48.306;14.374;2023-04-29T10:50:39;17.70;99.90
2497;DHT22;1259;48.306;14.374;2023-04-29T10:53:07;17.50;99.90
2497;DHT22;1259;48.306;14.374;2023-04-29T10:55:34;17.60;99.90
2497;DHT22;1259;48.306;14.374;2023-04-29T10:58:01;17.50;99.90
2497;DHT22;1259;48.306;14.374;2023-04-29T11:00:31;17.40;99.90
2497;DHT22;1259;48.306;14.374;2023-04-29T11:02:58;17.30;99.90
2497;DHT22;1259;48.306;14.374;2023-04-29T11:05:28;17.20;99.90
2497;DHT22;1259;48.306;14.374;2023-04-29T11:08:07;17.40;99.90
2497;DHT22;1259;48.306;14.374;2023-04-29T11:10:37;17.40;99.90
2497;DHT22;1259;48.306;14.374;2023-04-29T11:13:19;17.60;99.90
2497;DHT22;1259;48.306;14.374;2023-04-29T11:15:47;17.60;99.90
2497;DHT22;1259;48.306;14.374;2023-04-29T11:18:16;17.60;99.90
2497;DHT22;1259;48.306;14.374;2023-04-29T11:23:24;17.70;99.90
2497;DHT22;1259;48.306;14.374;2023-04-29T11:25:51;17.70;99.90
2497;DHT22;1259;48.306;14.374;2023-04-29T11:28:18;17.70;99.90
2497;DHT22;1259;48.306;14.374;2023-04-29T11:30:45;17.70;99.90
2497;DHT22;1259;48.306;14.374;2023-04-29T11:33:14;17.60;99.90
2497;DHT22;1259;48.306;14.374;2023-04-29T11:35:41;17.60;99.90
2497;DHT22;1259;48.306;14.374;2023-04-29T11:38:08;17.70;99.90
2497;DHT22;1259;48.306;14.374;2023-04-29T11:40:34;17.70;99.90
2497;DHT22;1259;48.306;14.374;2023-04-29T11:43:01;17.90;99.90
2497;DHT22;1259;48.306;14.374;2023-04-29T11:45:28;18.00;99.90
2497;DHT22;1259;48.306;14.374;2023-04-29T11:47:55;18.10;99.90
2497;DHT22;1259;48.306;14.374;2023-04-29T11:50:23;18.10;99.90
2497;DHT22;1259;48.306;14.374;2023-04-29T11:52:50;18.30;99.90
2497;DHT22;1259;48.306;14.374;2023-04-29T11:55:17;18.30;99.90
2497;DHT22;1259;48.306;14.374;2023-04-29T11:57:44;18.10;99.90
2497;DHT22;1259;48.306;14.374;2023-04-29T12:00:14;18.20;99.90
2497;DHT22;1259;48.306;14.374;2023-04-29T12:02:42;18.30;99.90
2497;DHT22;1259;48.306;14.374;2023-04-29T12:05:10;18.50;99.90
2497;DHT22;1259;48.306;14.374;2023-04-29T12:07:39;18.40;99.90
2497;DHT22;1259;48.306;14.374;2023-04-29T12:10:07;18.40;99.90
2497;DHT22;1259;48.306;14.374;2023-04-29T12:12:34;18.40;99.90
2497;DHT22;1259;48.306;14.374;2023-04-29T12:15:00;18.50;99.90
2497;DHT22;1259;48.306;14.374;2023-04-29T12:17:28;18.50;99.90
2497;DHT22;1259;48.306;14.374;2023-04-29T12:19:55;18.50;99.90
2497;DHT22;1259;48.306;14.374;2023-04-29T12:22:22;18.60;99.90
2497;DHT22;1259;48.306;14.374;2023-04-29T12:24:51;18.70;99.90
2497;DHT22;1259;48.306;14.374;2023-04-29T12:27:18;18.70;97.60
2497;DHT22;1259;48.306;14.374;2023-04-29T12:29:45;18.70;98.30
2497;DHT22;1259;48.306;14.374;2023-04-29T12:32:15;18.70;97.40
2497;DHT22;1259;48.306;14.374;2023-04-29T12:34:44;18.80;96.90
2497;DHT22;1259;48.306;14.374;2023-04-29T12:37:11;18.90;95.90
2497;DHT22;1259;48.306;14.374;2023-04-29T12:39:37;18.90;95.30
2497;DHT22;1259;48.306;14.374;2023-04-29T12:42:05;18.90;93.60
2497;DHT22;1259;48.306;14.374;2023-04-29T12:44:34;18.80;91.90
2497;DHT22;1259;48.306;14.374;2023-04-29T12:47:05;18.80;91.70
2497;DHT22;1259;48.306;14.374;2023-04-29T12:49:33;18.90;92.50
2497;DHT22;1259;48.306;14.374;2023-04-29T12:51:59;18.90;92.20
2497;DHT22;1259;48.306;14.374;2023-04-29T12:54:27;18.90;91.90
2497;DHT22;1259;48.306;14.374;2023-04-29T12:56:53;18.90;92.10
2497;DHT22;1259;48.306;14.374;2023-04-29T12:59:22;18.90;90.70
2497;DHT22;1259;48.306;14.374;2023-04-29T13:01:48;19.00;92.40
2497;DHT22;1259;48.306;14.374;2023-04-29T13:04:15;19.10;93.20
2497;DHT22;1259;48.306;14.374;2023-04-29T13:06:42;19.10;91.90
2497;DHT22;1259;48.306;14.374;2023-04-29T13:09:08;19.10;91.70
2497;DHT22;1259;48.306;14.374;2023-04-29T13:11:36;19.20;91.80
2497;DHT22;1259;48.306;14.374;2023-04-29T13:14:03;19.30;90.20
2497;DHT22;1259;48.306;14.374;2023-04-29T13:16:32;19.40;89.50
2497;DHT22;1259;48.306;14.374;2023-04-29T13:18:59;19.40;89.70
2497;DHT22;1259;48.306;14.374;2023-04-29T13:21:26;19.30;90.20
2497;DHT22;1259;48.306;14.374;2023-04-29T13:23:53;19.40;87.50
2497;DHT22;1259;48.306;14.374;2023-04-29T13:26:20;19.60;89.80
2497;DHT22;1259;48.306;14.374;2023-04-29T13:28:48;19.70;89.30
2497;DHT22;1259;48.306;14.374;2023-04-29T13:31:14;19.70;88.60
2497;DHT22;1259;48.306;14.374;2023-04-29T13:33:42;19.70;90.50
2497;DHT22;1259;48.306;14.374;2023-04-29T13:36:09;19.60;84.80
2497;DHT22;1259;48.306;14.374;2023-04-29T13:38:36;19.40;87.70
2497;DHT22;1259;48.306;14.374;2023-04-29T13:41:03;19.50;89.70
2497;DHT22;1259;48.306;14.374;2023-04-29T13:43:29;19.60;88.80
2497;DHT22;1259;48.306;14.374;2023-04-29T13:45:56;19.60;86.70
2497;DHT22;1259;48.306;14.374;2023-04-29T13:48:23;19.30;86.10
2497;DHT22;1259;48.306;14.374;2023-04-29T13:50:51;19.10;86.10
2497;DHT22;1259;48.306;14.374;2023-04-29T13:53:17;19.00;85.70
2497;DHT22;1259;48.306;14.374;2023-04-29T13:55:44;19.20;89.50
2497;DHT22;1259;48.306;14.374;2023-04-29T13:58:11;19.20;87.10
2497;DHT22;1259;48.306;14.374;2023-04-29T14:00:37;19.00;88.30
2497;DHT22;1259;48.306;14.374;2023-04-29T14:03:04;19.00;87.70
2497;DHT22;1259;48.306;14.374;2023-04-29T14:05:31;19.00;90.20
2497;DHT22;1259;48.306;14.374;2023-04-29T14:07:59;18.70;86.00
2497;DHT22;1259;48.306;14.374;2023-04-29T14:10:26;18.60;87.60
2497;DHT22;1259;48.306;14.374;2023-04-29T14:12:53;18.60;87.10
2497;DHT22;1259;48.306;14.374;2023-04-29T14:15:20;18.50;87.90
2497;DHT22;1259;48.306;14.374;2023-04-29T14:17:47;18.60;87.40
2497;DHT22;1259;48.306;14.374;2023-04-29T14:20:14;18.60;89.90
2497;DHT22;1259;48.306;14.374;2023-04-29T14:22:41;18.50;86.00
2497;DHT22;1259;48.306;14.374;2023-04-29T14:25:09;18.50;86.60
2497;DHT22;1259;48.306;14.374;2023-04-29T14:27:36;18.40;86.20
2497;DHT22;1259;48.306;14.374;2023-04-29T14:30:03;18.40;87.80
2497;DHT22;1259;48.306;14.374;2023-04-29T14:32:30;18.40;88.60
2497;DHT22;1259;48.306;14.374;2023-04-29T14:34:57;18.40;87.00
2497;DHT22;1259;48.306;14.374;2023-04-29T14:37:24;18.50;90.10
2497;DHT22;1259;48.306;14.374;2023-04-29T14:39:51;18.60;88.00
2497;DHT22;1259;48.306;14.374;2023-04-29T14:42:19;18.60;88.10
2497;DHT22;1259;48.306;14.374;2023-04-29T14:44:46;18.60;87.20
2497;DHT22;1259;48.306;14.374;2023-04-29T14:47:12;18.50;87.10
2497;DHT22;1259;48.306;14.374;2023-04-29T14:49:39;18.40;87.60
2497;DHT22;1259;48.306;14.374;2023-04-29T14:52:07;18.30;86.20
2497;DHT22;1259;48.306;14.374;2023-04-29T14:54:34;18.20;86.20
2497;DHT22;1259;48.306;14.374;2023-04-29T14:57:00;18.30;88.40
2497;DHT22;1259;48.306;14.374;2023-04-29T14:59:29;18.30;87.90
2497;DHT22;1259;48.306;14.374;2023-04-29T15:01:56;18.30;87.40
2497;DHT22;1259;48.306;14.374;2023-04-29T15:04:23;18.10;86.30
2497;DHT22;1259;48.306;14.374;2023-04-29T15:06:49;17.90;87.70
2497;DHT22;1259;48.306;14.374;2023-04-29T15:09:16;17.90;88.50
2497;DHT22;1259;48.306;14.374;2023-04-29T15:11:43;18.00;87.80
2497;DHT22;1259;48.306;14.374;2023-04-29T15:14:10;18.10;86.90
2497;DHT22;1259;48.306;14.374;2023-04-29T15:16:38;18.10;86.90
2497;DHT22;1259;48.306;14.374;2023-04-29T15:19:05;18.00;87.40
2497;DHT22;1259;48.306;14.374;2023-04-29T15:21:31;17.80;88.60
2497;DHT22;1259;48.306;14.374;2023-04-29T15:23:58;17.70;89.90
2497;DHT22;1259;48.306;14.374;2023-04-29T15:26:25;17.70;90.80
2497;DHT22;1259;48.306;14.374;2023-04-29T15:28:52;17.70;91.00
2497;DHT22;1259;48.306;14.374;2023-04-29T15:31:19;17.70;91.80
2497;DHT22;1259;48.306;14.374;2023-04-29T15:33:47;17.60;92.40
2497;DHT22;1259;48.306;14.374;2023-04-29T15:36:14;17.50;92.60
2497;DHT22;1259;48.306;14.374;2023-04-29T15:38:40;17.50;93.80
2497;DHT22;1259;48.306;14.374;2023-04-29T15:41:07;17.50;92.50
2497;DHT22;1259;48.306;14.374;2023-04-29T15:43:34;17.50;91.90
2497;DHT22;1259;48.306;14.374;2023-04-29T15:46:01;17.60;93.00
2497;DHT22;1259;48.306;14.374;2023-04-29T15:48:28;17.70;91.70
2497;DHT22;1259;48.306;14.374;2023-04-29T15:50:56;17.70;91.40
2497;DHT22;1259;48.306;14.374;2023-04-29T15:53:23;17.70;90.60
2497;DHT22;1259;48.306;14.374;2023-04-29T15:55:49;17.60;91.20